Aérodrome :
LOGIN :

S'inscrire | Disclaimer

   EN    FR    IT 

 










Légende :    VFR   VFR Marginal   IFR   IFR Intensif   IFR Très Intensif
Visi : 
Plafond : 
>= 8 km
>= 3000ft
5 à 8 km
1000 à 3000 ft
1500m à 5 km
500 à 1000 ft
800 à 1500m
200 à 500 ft
< 800m
< 200 ft
Symboles :   Orages  Brouillard  Fortes neiges  Fortes précipitations  Vent > 20 kt
SIGMETs :   Divers  Orages  Givrage  Turbulence  Onde Orograph.  Cendres Volcan.







- Altitude de l'aérodrome : 84 ft
- Voir les cartes d'approche


LFBC - Cazaux

DERNIER METAR :
  • 221800Z AUTO 28005KT 250V310 9999 FEW010 SCT015 12/12 Q1027 BECMG 29015KT

METARs EXPIRÉS :
  • 221730Z AUTO 28008KT 260V320 9999 BKN010 BKN015 OVC020 13/12 Q1027 BECMG SCT015
  • 221700Z AUTO 28008KT 240V300 9999 BKN009 BKN014 BKN023 13/12 Q1026 BECMG SCT015
  • 221630Z AUTO 28009KT 240V320 9999 BKN008 BKN016 13/12 Q1026 BECMG SCT015
  • 221600Z AUTO 28011KT 250V310 9999 SCT014 13/12 Q1026 NOSIG
  • 221530Z AUTO 28013KT 250V310 9999 FEW010 BKN037 BKN044 13/12 Q1025 NOSIG

TAF TAF LFBC
Valide du 22 à 15h jusqu'au 23 à 15h UTC


221400Z 2215/2315 29015G25KT 9999 BKN010 BKN020
BECMG 2215/2217 29015KT SCT015
TEMPO 2303/2306 0800 BCFG
BECMG 2306/2307 2500 DZ BKN005
TEMPO 2306/2312 1500 DZ BKN002
Pas de NOTAMs connus pour ce terrain.
2 SIGMETs publiés pour la FIR Bordeaux (LFBB) :
 
Onde orographique forte
LFBB SIGMET 5 VALID 221800/222100 LFPW
LFBB BORDEAUX FIR/UIR SEV MTW FCST SE OF LINE N4330 E00245 - N4230 E00145 SFC/FL280 STNR NC=
Turbulence forte
LFBB SIGMET 3 VALID 221500/221800 LFPW
LFBB BORDEAUX FIR/UIR SEV TURB FCST SE OF LINE N4630 E00300 - N4230 E00115 SFC/FL080 STNR NC=



MET'MAP, la Météo Aéronautique d'un coup d'oeil ! - Copyright ORBIFLY Décembre 2007 - Disclaimer

ORBIFLY MET'MAP TEAM :

Programmation & Développement : Alexandra Zaïnal
Conception & Développement : Baudouin d'Aumeries
Co-Programmation & Développement : Marc-Olivier Méhu
Soutien technique & logistique : Manuel Goepfert

Contact : metmap@orbifly.com




SOURCES & CREDITS :

   NOAA